Patchy rain nearby
| Ora | Descriere | Temp | Se simte | Precipitatii | Umiditate | Vant |
|---|---|---|---|---|---|---|
| 00:00 | Senin | 15.9° | 15.9° | 0% | 57% | S 21.6 KM/H |
| 01:00 | Senin | 14.8° | 13.6° | 0% | 60% | SSE 17.6 KM/H |
| 02:00 | Senin | 13.1° | 11.9° | 0% | 67% | SSE 14 KM/H |
| 03:00 | Senin | 12° | 10.6° | 0% | 72% | SSE 13.3 KM/H |
| 04:00 | Senin | 11.2° | 9.8° | 0% | 75% | SSE 11.9 KM/H |
| 05:00 | Senin | 10.8° | 9.3° | 0% | 77% | SSE 11.9 KM/H |
| 06:00 | Senin | 10.4° | 8.8° | 0% | 79% | SSE 11.9 KM/H |
| 07:00 | Senin | 11.5° | 10.1° | 0% | 79% | SSE 11.9 KM/H |
| 08:00 | Senin | 14° | 12.9° | 0% | 72% | SSE 14.8 KM/H |
| 09:00 | Senin | 16.4° | 16.4° | 0% | 66% | SSE 15.8 KM/H |
| 10:00 | Senin | 18.5° | 18.5° | 0% | 61% | SSE 17.3 KM/H |
| 11:00 | Senin | 19.8° | 19.8° | 0% | 58% | SSE 20.2 KM/H |
| 12:00 | Senin | 22.2° | 24.5° | 0% | 52% | SSE 20.9 KM/H |
| 13:00 | Senin | 23.2° | 24.8° | 0% | 50% | SSE 22 KM/H |
| 14:00 | Senin | 23.7° | 25° | 0% | 48% | SE 23.8 KM/H |
| 15:00 | Senin | 23.9° | 25° | 0% | 46% | SE 26.6 KM/H |
| 16:00 | Senin | 23.7° | 24.9° | 0% | 45% | SSE 28.1 KM/H |
| 17:00 | Senin | 23.2° | 24.8° | 0% | 49% | SSE 24.8 KM/H |
| 18:00 | Senin | 22.2° | 24.5° | 0% | 52% | SSE 24.8 KM/H |
| 19:00 | Patchy rain nearby | 20.4° | 20.4° | 62% | 56% | SSE 26.6 KM/H |
| 20:00 | Patchy rain nearby | 18.2° | 18.2° | 100% | 60% | SSE 20.9 KM/H |
| 21:00 | 16.6° | 16.6° | 0% | 62% | SSE 14.4 KM/H | |
| 22:00 | 15.2° | 15.3° | 0% | 67% | SE 10.1 KM/H | |
| 23:00 | 14.5° | 13.9° | 0% | 70% | SE 11.5 KM/H |